createdAt,value
2019-05-22T00:01:40.846Z,16.51
2019-05-22T00:04:25.507Z,16.54
2019-05-22T00:07:03.867Z,16.51
2019-05-22T00:09:40.279Z,16.44
2019-05-22T00:12:19.361Z,16.40
2019-05-22T00:14:54.730Z,16.40
2019-05-22T00:17:32.495Z,16.38
2019-05-22T00:20:07.276Z,16.40
2019-05-22T00:22:43.675Z,16.39
2019-05-22T00:25:21.287Z,16.35
2019-05-22T00:27:56.294Z,16.34
2019-05-22T00:30:36.442Z,16.31
2019-05-22T00:33:12.283Z,16.22
2019-05-22T00:35:47.616Z,16.18
2019-05-22T00:38:23.858Z,16.17
2019-05-22T00:40:58.331Z,16.09
2019-05-22T00:43:31.281Z,16.03
2019-05-22T00:46:08.272Z,16.03
2019-05-22T00:48:44.942Z,16.05
2019-05-22T00:51:36.669Z,16.02
2019-05-22T00:54:38.717Z,16.05
2019-05-22T00:57:45.865Z,16.01
2019-05-22T01:00:34.807Z,16.02
2019-05-22T01:03:10.283Z,15.97
2019-05-22T01:05:45.267Z,15.91
2019-05-22T01:08:21.342Z,15.87
2019-05-22T01:10:57.703Z,15.92
2019-05-22T01:13:33.294Z,15.92
2019-05-22T01:16:10.683Z,15.95
2019-05-22T01:18:47.275Z,15.89
2019-05-22T01:21:25.281Z,15.86
2019-05-22T01:24:00.627Z,15.85
2019-05-22T01:26:36.265Z,15.86
2019-05-22T01:29:11.939Z,15.81
2019-05-22T01:31:51.533Z,15.75
2019-05-22T01:34:30.276Z,15.74
2019-05-22T01:37:10.779Z,15.81
2019-05-22T01:40:10.247Z,15.80
2019-05-22T01:42:46.566Z,15.74
2019-05-22T01:45:25.289Z,15.78
2019-05-22T01:48:09.278Z,15.76
2019-05-22T01:50:49.265Z,15.67
2019-05-22T01:53:27.600Z,15.70
2019-05-22T01:56:08.763Z,15.68
2019-05-22T01:58:43.096Z,15.70
2019-05-22T02:01:24.274Z,15.62
2019-05-22T02:04:02.328Z,15.61
2019-05-22T02:06:37.550Z,15.58
2019-05-22T02:09:41.277Z,15.58
2019-05-22T02:12:36.276Z,15.67
2019-05-22T02:15:11.564Z,15.67
2019-05-22T02:17:46.280Z,15.63
2019-05-22T02:20:21.270Z,15.61
2019-05-22T02:22:55.693Z,15.63
2019-05-22T02:25:30.255Z,15.62
2019-05-22T02:28:09.500Z,15.63
2019-05-22T02:30:45.717Z,15.63
2019-05-22T02:33:19.271Z,15.69
2019-05-22T02:35:55.090Z,15.59
2019-05-22T02:38:29.675Z,15.56
2019-05-22T02:41:48.941Z,15.62
2019-05-22T02:44:25.529Z,15.52
2019-05-22T02:47:18.280Z,15.55
2019-05-22T02:49:40.280Z,15.65
2019-05-22T02:52:15.520Z,15.68
2019-05-22T02:54:51.253Z,15.75
2019-05-22T02:57:28.555Z,15.78
2019-05-22T03:00:03.371Z,15.77
2019-05-22T03:02:51.364Z,15.68
2019-05-22T03:05:25.938Z,15.68
2019-05-22T03:07:59.101Z,15.70
2019-05-22T03:10:33.307Z,15.72
2019-05-22T03:13:11.301Z,15.65
2019-05-22T03:15:45.787Z,15.65
2019-05-22T03:18:21.818Z,15.65
2019-05-22T03:20:56.775Z,15.62
2019-05-22T03:23:40.498Z,15.51
2019-05-22T03:26:15.283Z,15.49
2019-05-22T03:28:49.983Z,15.42
2019-05-22T03:31:24.720Z,15.33
2019-05-22T03:33:57.655Z,15.26
2019-05-22T03:36:31.942Z,15.23
2019-05-22T03:39:08.276Z,15.18
2019-05-22T03:41:43.273Z,15.20
2019-05-22T03:44:20.097Z,15.14
2019-05-22T03:46:59.292Z,15.04
2019-05-22T03:49:32.559Z,15.04
2019-05-22T03:52:09.342Z,15.02
2019-05-22T03:54:44.118Z,15.07
2019-05-22T03:57:18.686Z,15.15
2019-05-22T03:59:52.971Z,15.15
2019-05-22T04:02:28.757Z,15.20
2019-05-22T04:05:03.488Z,15.23
2019-05-22T04:07:39.397Z,15.21
2019-05-22T04:10:14.292Z,15.14
2019-05-22T04:12:48.787Z,15.11
2019-05-22T04:15:22.820Z,15.06
2019-05-22T04:18:02.322Z,15.04
2019-05-22T04:20:36.858Z,15.00
2019-05-22T04:23:11.275Z,14.97
2019-05-22T04:25:46.271Z,14.91
2019-05-22T04:28:20.940Z,14.93
2019-05-22T04:30:59.804Z,14.91
2019-05-22T04:33:32.945Z,14.89
2019-05-22T04:36:10.358Z,14.89
2019-05-22T04:38:44.905Z,14.84
2019-05-22T04:41:18.695Z,14.82
2019-05-22T04:43:53.929Z,14.80
2019-05-22T04:46:28.124Z,14.77
2019-05-22T04:49:03.462Z,14.75
2019-05-22T04:51:39.400Z,14.75
2019-05-22T04:54:13.990Z,14.71
2019-05-22T04:56:49.280Z,14.65
2019-05-22T04:59:24.278Z,14.63
2019-05-22T05:01:58.745Z,14.65
2019-05-22T05:04:33.283Z,14.64
2019-05-22T05:07:08.780Z,14.74
2019-05-22T05:09:45.277Z,14.68
2019-05-22T05:12:20.272Z,14.72
2019-05-22T05:14:54.728Z,14.81
2019-05-22T05:17:29.101Z,14.88
2019-05-22T05:20:03.658Z,14.87
2019-05-22T05:22:46.783Z,14.84
2019-05-22T05:25:20.687Z,14.82
2019-05-22T05:27:56.291Z,14.76
2019-05-22T05:30:32.271Z,14.74
2019-05-22T05:33:06.835Z,14.69
2019-05-22T05:35:40.350Z,14.66
2019-05-22T05:38:16.274Z,14.60
2019-05-22T05:40:51.279Z,14.60
2019-05-22T05:43:26.479Z,14.58
2019-05-22T05:46:02.701Z,14.58
2019-05-22T05:48:38.949Z,14.56
2019-05-22T05:51:42.538Z,14.53
2019-05-22T05:54:19.096Z,14.51
2019-05-22T05:56:54.278Z,14.47
2019-05-22T05:59:31.291Z,14.46
2019-05-22T06:02:07.284Z,14.57
2019-05-22T06:04:42.651Z,14.55
2019-05-22T06:07:28.284Z,14.55
2019-05-22T06:10:50.951Z,14.42
2019-05-22T06:13:25.635Z,14.50
2019-05-22T06:17:31.669Z,14.47
2019-05-22T06:20:12.279Z,14.48
2019-05-22T06:23:29.991Z,14.45
2019-05-22T06:26:05.298Z,14.50
2019-05-22T06:28:44.334Z,14.50
2019-05-22T06:31:36.939Z,14.44
2019-05-22T06:34:11.738Z,14.38
2019-05-22T06:36:45.076Z,14.40
2019-05-22T06:39:19.757Z,14.34
2019-05-22T06:41:54.338Z,14.28
2019-05-22T06:44:37.274Z,14.20
2019-05-22T06:47:18.687Z,14.20
2019-05-22T06:49:58.303Z,14.14
2019-05-22T06:52:33.471Z,14.15
2019-05-22T06:55:09.250Z,14.12
2019-05-22T06:57:43.761Z,14.07
2019-05-22T07:00:22.135Z,14.06
2019-05-22T07:02:57.313Z,14.09
2019-05-22T07:05:32.282Z,14.09
2019-05-22T07:08:07.572Z,14.05
2019-05-22T07:10:43.532Z,14.11
2019-05-22T07:13:18.329Z,14.21
2019-05-22T07:15:54.279Z,14.29
2019-05-22T07:18:32.061Z,14.23
2019-05-22T07:21:08.307Z,14.19
2019-05-22T07:23:43.272Z,14.24
2019-05-22T07:26:18.332Z,14.29
2019-05-22T07:28:53.315Z,14.30
2019-05-22T07:31:29.083Z,14.34
2019-05-22T07:34:04.243Z,14.20
2019-05-22T07:36:38.934Z,14.20
2019-05-22T07:39:13.663Z,14.18
2019-05-22T07:41:48.363Z,14.14
2019-05-22T07:44:23.278Z,14.20
2019-05-22T07:46:57.926Z,14.23
2019-05-22T07:49:32.678Z,14.17
2019-05-22T07:52:11.944Z,14.22
2019-05-22T07:54:47.128Z,14.35
2019-05-22T07:57:25.623Z,14.31
2019-05-22T08:00:00.280Z,14.32
2019-05-22T08:02:40.287Z,14.32
2019-05-22T08:05:16.341Z,14.35
2019-05-22T08:07:52.344Z,14.28
2019-05-22T08:10:29.795Z,14.27
2019-05-22T08:13:04.283Z,14.32
2019-05-22T08:15:39.269Z,14.47
2019-05-22T08:18:14.277Z,14.47
2019-05-22T08:20:48.748Z,14.46
2019-05-22T08:23:23.639Z,14.45
2019-05-22T08:26:00.309Z,14.48
2019-05-22T08:28:35.274Z,14.54
2019-05-22T08:31:13.594Z,14.60
2019-05-22T08:33:48.674Z,14.56
2019-05-22T08:36:23.666Z,14.56
2019-05-22T08:38:58.296Z,14.52
2019-05-22T08:41:39.932Z,14.48
2019-05-22T08:44:17.953Z,14.44
2019-05-22T08:46:54.108Z,14.47
2019-05-22T08:49:29.670Z,14.47
2019-05-22T08:52:04.939Z,14.46
2019-05-22T08:54:39.415Z,14.42
2019-05-22T08:57:16.315Z,14.43
2019-05-22T08:59:51.944Z,14.51
2019-05-22T09:02:26.291Z,14.46
2019-05-22T09:05:00.906Z,14.69
2019-05-22T09:07:36.290Z,14.69
2019-05-22T09:10:11.584Z,14.76
2019-05-22T09:12:46.285Z,14.73
2019-05-22T09:15:21.286Z,14.70
2019-05-22T09:17:56.271Z,14.73
2019-05-22T09:20:46.417Z,14.82
2019-05-22T09:23:08.687Z,14.88
2019-05-22T09:25:42.270Z,14.98
2019-05-22T09:28:16.631Z,15.11
2019-05-22T09:30:51.302Z,15.11
2019-05-22T09:33:26.280Z,15.16
2019-05-22T09:36:00.686Z,15.32
2019-05-22T09:38:35.281Z,15.32
2019-05-22T09:41:09.936Z,15.25
2019-05-22T09:43:44.279Z,15.19
2019-05-22T09:46:19.567Z,15.19
2019-05-22T09:48:54.278Z,15.09
2019-05-22T09:51:29.310Z,15.13
2019-05-22T09:54:04.278Z,15.18
2019-05-22T09:56:39.321Z,15.02
2019-05-22T09:59:14.279Z,15.02
2019-05-22T10:01:48.769Z,15.05
2019-05-22T10:04:23.267Z,15.12
2019-05-22T10:06:57.785Z,15.12
2019-05-22T10:09:31.574Z,15.11
2019-05-22T10:12:08.299Z,15.08
2019-05-22T10:14:43.340Z,15.08
2019-05-22T10:17:40.123Z,14.96
2019-05-22T10:20:15.443Z,14.98
2019-05-22T10:22:50.109Z,14.92
2019-05-22T10:25:25.252Z,14.89
2019-05-22T10:31:36.847Z,14.82
2019-05-22T10:34:11.641Z,14.82
2019-05-22T10:36:46.614Z,14.86
2019-05-22T10:39:24.641Z,14.97
2019-05-22T10:41:57.909Z,14.97
2019-05-22T10:44:32.666Z,14.99
2019-05-22T10:47:09.413Z,15.22
2019-05-22T10:49:44.269Z,15.32
2019-05-22T10:52:19.329Z,15.32
2019-05-22T10:54:56.107Z,15.30
2019-05-22T10:57:31.712Z,15.30
2019-05-22T11:00:07.931Z,15.29
2019-05-22T11:02:42.927Z,15.21
2019-05-22T11:05:18.277Z,15.23
2019-05-22T11:07:53.333Z,15.19
2019-05-22T11:10:28.462Z,15.31
2019-05-22T11:13:03.679Z,15.33
2019-05-22T11:15:39.641Z,15.44
2019-05-22T11:18:14.274Z,15.50
2019-05-22T11:20:48.721Z,15.62
2019-05-22T11:23:23.358Z,15.63
2019-05-22T11:25:58.276Z,15.75
2019-05-22T11:28:33.571Z,15.80
2019-05-22T11:31:08.877Z,15.87
2019-05-22T11:33:43.714Z,15.89
2019-05-22T11:36:19.285Z,15.89
2019-05-22T11:38:53.761Z,15.92
2019-05-22T11:41:27.999Z,15.97
2019-05-22T11:44:03.286Z,16.03
2019-05-22T11:46:38.319Z,16.09
2019-05-22T11:49:13.318Z,16.14
2019-05-22T11:51:48.283Z,16.15
2019-05-22T11:54:23.766Z,16.24
2019-05-22T11:56:57.952Z,16.24
2019-05-22T11:59:32.891Z,16.23
2019-05-22T12:02:08.342Z,16.08
2019-05-22T12:04:48.007Z,16.08
2019-05-22T12:07:20.357Z,16.08
2019-05-22T12:09:55.276Z,16.14
2019-05-22T12:12:30.060Z,16.12
2019-05-22T12:15:06.363Z,16.11
2019-05-22T12:17:42.133Z,16.22
2019-05-22T12:20:17.690Z,16.26
2019-05-22T12:22:52.268Z,16.27
2019-05-22T12:25:28.275Z,16.27
2019-05-22T12:28:03.910Z,16.29
2019-05-22T12:30:39.187Z,16.39
2019-05-22T12:33:14.599Z,16.38
2019-05-22T12:35:51.115Z,16.58
2019-05-22T12:38:27.585Z,16.64
2019-05-22T12:41:01.950Z,16.64
2019-05-22T12:43:37.183Z,16.71
2019-05-22T12:46:13.597Z,16.71
2019-05-22T12:48:48.735Z,16.72
2019-05-22T12:51:23.657Z,16.84
2019-05-22T12:53:58.661Z,16.97
2019-05-22T12:56:33.947Z,17.00
2019-05-22T12:59:09.937Z,16.97
2019-05-22T13:01:46.268Z,16.90
2019-05-22T13:04:20.763Z,16.89
2019-05-22T13:06:57.246Z,16.89
2019-05-22T13:09:32.933Z,16.76
2019-05-22T13:12:09.290Z,16.76
2019-05-22T13:14:45.413Z,16.93
2019-05-22T13:17:22.074Z,16.82
2019-05-22T13:19:56.782Z,16.89
2019-05-22T13:22:30.391Z,16.89
2019-05-22T13:25:06.854Z,16.98
2019-05-22T13:27:41.929Z,16.86
2019-05-22T13:30:18.635Z,16.86
2019-05-22T13:35:38.691Z,16.71
2019-05-22T13:38:14.680Z,16.67
2019-05-22T13:40:49.953Z,16.56
2019-05-22T13:43:25.740Z,16.35
2019-05-22T13:45:59.845Z,16.35
2019-05-22T13:48:34.319Z,16.41
2019-05-22T13:51:11.273Z,16.41
2019-05-22T13:53:47.606Z,16.30
2019-05-22T13:56:25.562Z,16.21
2019-05-22T13:59:00.272Z,16.11
2019-05-22T14:01:35.305Z,16.12
2019-05-22T14:04:10.120Z,16.05
2019-05-22T14:06:46.291Z,16.00
2019-05-22T14:09:42.338Z,16.00
2019-05-22T14:12:17.158Z,16.11
2019-05-22T14:14:51.699Z,16.04
2019-05-22T14:17:26.352Z,16.04
2019-05-22T14:21:51.297Z,16.18
2019-05-22T14:24:20.740Z,16.17
2019-05-22T14:26:55.321Z,16.23
2019-05-22T14:29:30.270Z,16.21
2019-05-22T14:32:05.695Z,16.28
2019-05-22T14:34:40.402Z,16.30
2019-05-22T14:37:15.654Z,16.53
2019-05-22T14:39:50.788Z,16.53
2019-05-22T14:42:25.186Z,16.78
2019-05-22T14:45:00.287Z,16.78
2019-05-22T14:47:37.578Z,16.82
2019-05-22T14:50:13.650Z,16.91
2019-05-22T14:52:48.783Z,16.90
2019-05-22T14:55:22.280Z,16.72
2019-05-22T14:57:58.357Z,16.74
2019-05-22T15:00:34.090Z,16.74
2019-05-22T15:03:08.917Z,16.59
2019-05-22T15:05:43.827Z,16.47
2019-05-22T15:08:17.103Z,16.43
2019-05-22T15:10:51.717Z,16.40
2019-05-22T15:13:25.693Z,16.22
2019-05-22T15:16:00.342Z,16.05
2019-05-22T15:18:35.265Z,15.96
2019-05-22T15:21:11.737Z,15.88
2019-05-22T15:23:46.277Z,15.94
2019-05-22T15:26:20.941Z,15.96
2019-05-22T15:28:55.648Z,15.96
2019-05-22T15:31:30.538Z,15.90
2019-05-22T15:34:06.330Z,15.93
2019-05-22T15:36:41.278Z,15.70
2019-05-22T15:39:20.769Z,15.70
2019-05-22T15:41:54.553Z,15.63
2019-05-22T15:44:30.583Z,15.64
2019-05-22T15:47:06.288Z,15.56
2019-05-22T15:49:45.677Z,15.56
2019-05-22T15:52:20.497Z,15.52
2019-05-22T15:54:55.273Z,15.47
2019-05-22T15:57:29.728Z,15.35
2019-05-22T16:00:08.346Z,15.35
2019-05-22T16:02:46.552Z,15.34
2019-05-22T16:05:23.398Z,15.33
2019-05-22T16:07:58.470Z,15.30
2019-05-22T16:10:32.946Z,15.23
2019-05-22T16:13:08.531Z,15.23
2019-05-22T16:15:44.274Z,15.16
2019-05-22T16:18:22.496Z,15.20
2019-05-22T16:20:59.318Z,15.20
2019-05-22T16:23:36.165Z,15.04
2019-05-22T16:26:12.032Z,15.04
2019-05-22T16:28:49.944Z,15.07
2019-05-22T16:31:25.285Z,14.98
2019-05-22T16:34:00.279Z,14.98
2019-05-22T16:36:35.625Z,14.97
2019-05-22T16:39:12.947Z,14.94
2019-05-22T16:41:47.790Z,14.92
2019-05-22T16:44:22.102Z,14.85
2019-05-22T16:47:02.805Z,14.83
2019-05-22T16:49:37.282Z,14.83
2019-05-22T16:52:13.550Z,14.85
2019-05-22T16:54:49.325Z,14.85
2019-05-22T16:57:24.300Z,14.81
2019-05-22T17:00:00.158Z,14.80
2019-05-22T17:02:38.273Z,14.75
2019-05-22T17:05:14.313Z,14.68
2019-05-22T17:07:48.784Z,14.63
2019-05-22T17:10:22.669Z,14.60
2019-05-22T17:12:57.946Z,14.60
2019-05-22T17:15:33.121Z,14.70
2019-05-22T17:18:10.311Z,14.70
2019-05-22T17:20:45.286Z,14.66
2019-05-22T17:23:19.767Z,14.68
2019-05-22T17:25:53.906Z,14.67
2019-05-22T17:28:28.967Z,14.68
2019-05-22T17:31:04.455Z,14.63
2019-05-22T17:33:39.669Z,14.63
2019-05-22T17:36:12.864Z,14.49
2019-05-22T17:38:46.380Z,14.37
2019-05-22T17:41:21.300Z,14.37
2019-05-22T17:43:56.944Z,14.34
2019-05-22T17:46:32.250Z,14.30
2019-05-22T17:49:07.425Z,14.26
2019-05-22T17:51:42.281Z,14.16
2019-05-22T17:54:18.728Z,14.16
2019-05-22T17:56:53.720Z,14.16
2019-05-22T17:59:28.428Z,14.12
2019-05-22T18:02:04.878Z,14.12
2019-05-22T18:04:39.696Z,14.14
2019-05-22T18:07:14.528Z,14.15
2019-05-22T18:09:49.106Z,14.15
2019-05-22T18:12:25.175Z,14.11
2019-05-22T18:15:00.381Z,14.11
2019-05-22T18:17:36.301Z,14.09
2019-05-22T18:20:12.783Z,14.06
2019-05-22T18:22:45.859Z,14.11
2019-05-22T18:25:20.681Z,14.11
2019-05-22T18:27:55.966Z,14.07
2019-05-22T18:30:31.288Z,14.10
2019-05-22T18:33:06.561Z,14.11
2019-05-22T18:35:41.398Z,14.11
2019-05-22T18:38:16.329Z,14.13
2019-05-22T18:40:50.793Z,14.06
2019-05-22T18:43:23.872Z,14.06
2019-05-22T18:45:58.290Z,14.07
2019-05-22T18:48:33.333Z,14.06
2019-05-22T18:51:09.302Z,14.06
2019-05-22T18:53:44.299Z,14.08
2019-05-22T18:56:19.107Z,14.11
2019-05-22T18:58:54.283Z,14.23
2019-05-22T19:01:28.964Z,14.23
2019-05-22T19:04:03.953Z,14.15
2019-05-22T19:06:38.504Z,14.15
2019-05-22T19:09:16.286Z,14.15
2019-05-22T19:11:51.015Z,14.17
2019-05-22T19:14:26.000Z,14.15
2019-05-22T19:17:00.762Z,14.11
2019-05-22T19:19:36.325Z,14.11
2019-05-22T19:22:11.302Z,14.12
2019-05-22T19:24:46.317Z,14.20
2019-05-22T19:27:21.105Z,14.18
2019-05-22T19:29:55.747Z,14.18
2019-05-22T19:32:29.960Z,14.12
2019-05-22T19:35:05.790Z,14.03
2019-05-22T19:37:41.164Z,14.08
2019-05-22T19:40:16.320Z,14.08
2019-05-22T19:42:50.903Z,14.11
2019-05-22T19:45:25.699Z,14.14
2019-05-22T19:47:59.085Z,14.13
2019-05-22T19:50:33.338Z,14.12
2019-05-22T19:53:18.769Z,14.06
2019-05-22T19:55:45.868Z,14.04
2019-05-22T19:58:21.945Z,14.01
2019-05-22T20:00:55.334Z,14.07
2019-05-22T20:03:30.512Z,14.10
2019-05-22T20:06:05.779Z,14.08
2019-05-22T20:08:40.670Z,14.08
2019-05-22T20:11:14.956Z,14.08
2019-05-22T20:13:49.635Z,14.07
2019-05-22T20:16:23.045Z,14.06
2019-05-22T20:18:57.331Z,14.02
2019-05-22T20:21:32.404Z,13.94
2019-05-22T20:24:07.570Z,14.05
2019-05-22T20:26:42.399Z,14.04
2019-05-22T20:29:18.307Z,14.05
2019-05-22T20:31:53.280Z,13.95
2019-05-22T20:34:27.930Z,14.05
2019-05-22T20:37:02.700Z,14.05
2019-05-22T20:39:37.534Z,14.08
2019-05-22T20:42:12.292Z,14.11
2019-05-22T20:44:47.318Z,14.11
2019-05-22T20:47:25.642Z,14.06
2019-05-22T20:50:00.317Z,14.07
2019-05-22T20:52:36.668Z,14.02
2019-05-22T20:55:12.715Z,14.11
2019-05-22T20:57:46.282Z,14.12
2019-05-22T21:00:22.289Z,14.09
2019-05-22T21:03:04.345Z,14.09
2019-05-22T21:05:40.449Z,14.12
2019-05-22T21:08:18.373Z,14.16
2019-05-22T21:10:54.570Z,14.14
2019-05-22T21:13:28.954Z,14.16
2019-05-22T21:16:03.950Z,14.10
2019-05-22T21:18:42.470Z,14.10
2019-05-22T21:21:18.680Z,14.05
2019-05-22T21:24:08.958Z,14.05
2019-05-22T21:26:29.778Z,14.07
2019-05-22T21:29:04.792Z,14.00
2019-05-22T21:31:38.283Z,14.00
2019-05-22T21:34:13.283Z,14.01
2019-05-22T21:36:48.276Z,14.01
2019-05-22T21:39:23.887Z,13.99
2019-05-22T21:41:58.290Z,13.97
2019-05-22T21:44:32.964Z,13.99
2019-05-22T21:47:07.701Z,14.03
2019-05-22T21:49:43.287Z,14.03
2019-05-22T21:52:17.857Z,14.02
2019-05-22T21:54:50.867Z,14.03
2019-05-22T21:57:25.559Z,14.03
2019-05-22T22:00:00.317Z,14.02
2019-05-22T22:02:39.581Z,14.03
2019-05-22T22:05:14.582Z,14.03
2019-05-22T22:07:49.539Z,14.03
2019-05-22T22:10:24.731Z,14.05
2019-05-22T22:12:59.284Z,14.05
2019-05-22T22:15:41.574Z,14.03
2019-05-22T22:18:18.319Z,13.99
2019-05-22T22:20:53.286Z,14.01
2019-05-22T22:23:28.312Z,13.99
2019-05-22T22:26:03.604Z,14.01
2019-05-22T22:28:40.592Z,13.93
2019-05-22T22:31:18.490Z,13.95
2019-05-22T22:34:01.537Z,13.99
2019-05-22T22:36:36.670Z,14.00
2019-05-22T22:39:15.273Z,13.99
2019-05-22T22:41:53.917Z,13.98
2019-05-22T22:44:28.773Z,14.00
2019-05-22T22:47:11.717Z,13.99
2019-05-22T22:49:47.281Z,13.91
2019-05-22T22:52:22.787Z,13.91
2019-05-22T22:54:56.588Z,13.90
2019-05-22T22:57:31.380Z,13.98
2019-05-22T23:00:08.513Z,13.93
2019-05-22T23:02:46.432Z,13.84
2019-05-22T23:05:21.279Z,13.78
2019-05-22T23:07:57.284Z,13.73
2019-05-22T23:10:33.089Z,13.79
2019-05-22T23:13:08.701Z,13.75
2019-05-22T23:15:44.990Z,13.75
2019-05-22T23:19:07.276Z,13.78
2019-05-22T23:21:40.348Z,13.79
2019-05-22T23:24:13.316Z,13.70
2019-05-22T23:26:47.877Z,13.63
2019-05-22T23:29:22.712Z,13.71
2019-05-22T23:31:59.337Z,13.71
2019-05-22T23:34:34.286Z,13.70
2019-05-22T23:37:11.267Z,13.73
2019-05-22T23:39:47.950Z,13.67
2019-05-22T23:44:31.947Z,13.78
2019-05-22T23:47:07.873Z,13.64
2019-05-22T23:49:41.656Z,13.64
2019-05-22T23:52:18.393Z,13.69
2019-05-22T23:54:54.302Z,13.73
2019-05-22T23:57:29.564Z,13.70
